createdAt,value
2023-04-21T00:04:17.867Z,98143.97
2023-04-21T00:09:21.309Z,98144.94
2023-04-21T00:14:25.615Z,98145.06
2023-04-21T00:19:28.878Z,98137.84
2023-04-21T00:24:31.580Z,98147.47
2023-04-21T00:29:35.613Z,98139.19
2023-04-21T00:34:38.365Z,98145.19
2023-04-21T00:39:41.783Z,98138.84
2023-04-21T00:44:46.012Z,98134.75
2023-04-21T00:49:49.432Z,98138.03
2023-04-21T00:54:52.167Z,98135.25
2023-04-21T00:59:56.490Z,98126.09
2023-04-21T01:05:00.577Z,98137.44
2023-04-21T01:10:03.485Z,98132.63
2023-04-21T01:15:09.708Z,98137.59
2023-04-21T01:20:15.073Z,98137.69
2023-04-21T01:25:22.437Z,98131.56
2023-04-21T01:30:25.248Z,98142.63
2023-04-21T01:35:27.989Z,98139.25
2023-04-21T01:40:32.178Z,98145.38
2023-04-21T01:45:37.319Z,98147.06
2023-04-21T01:50:40.203Z,98149.59
2023-04-21T01:55:44.381Z,98135.50
2023-04-21T02:00:47.262Z,98139.75
2023-04-21T02:05:51.480Z,98132.28
2023-04-21T02:10:55.576Z,98143.00
2023-04-21T02:16:12.069Z,98138.94
2023-04-21T02:21:16.434Z,98143.63
2023-04-21T02:26:20.900Z,98144.09
2023-04-21T02:31:23.919Z,98144.72
2023-04-21T02:36:26.747Z,98145.31
2023-04-21T02:41:34.800Z,98147.16
2023-04-21T02:46:41.087Z,98148.09
2023-04-21T02:51:43.784Z,98137.38
2023-04-21T02:56:47.918Z,98150.19
2023-04-21T03:01:50.952Z,98153.56
2023-04-21T03:06:54.503Z,98141.03
2023-04-21T03:11:58.595Z,98158.72
2023-04-21T03:17:01.538Z,98152.84
2023-04-21T03:22:06.655Z,98145.84
2023-04-21T03:27:11.215Z,98138.97
2023-04-21T03:32:14.040Z,98137.53
2023-04-21T03:37:17.304Z,98133.69
2023-04-21T03:42:22.151Z,98138.97
2023-04-21T03:47:26.111Z,98144.03
2023-04-21T03:52:28.979Z,98144.19
2023-04-21T03:57:33.113Z,98152.22
2023-04-21T04:02:36.032Z,98141.53
2023-04-21T04:07:38.944Z,98143.47
2023-04-21T04:12:42.965Z,98134.06
2023-04-21T04:17:45.818Z,98135.94
2023-04-21T04:22:48.792Z,98134.16
2023-04-21T04:27:53.658Z,98143.06
2023-04-21T04:32:58.035Z,98142.84
2023-04-21T04:38:00.834Z,98133.91
2023-04-21T04:43:05.009Z,98135.13
2023-04-21T04:48:08.250Z,98132.97
2023-04-21T04:53:12.289Z,98133.69
2023-04-21T04:58:17.294Z,98132.38
2023-04-21T05:03:20.269Z,98139.38
2023-04-21T05:08:23.189Z,98126.75
2023-04-21T05:13:27.530Z,98133.50
2023-04-21T05:18:30.721Z,98143.72
2023-04-21T05:23:34.108Z,98154.56
2023-04-21T05:28:38.303Z,98155.56
2023-04-21T05:33:42.600Z,98151.56
2023-04-21T05:38:46.184Z,98156.25
2023-04-21T05:43:50.531Z,98145.94
2023-04-21T05:48:53.303Z,98160.25
2023-04-21T05:53:58.603Z,98160.13
2023-04-21T05:59:03.734Z,98153.75
2023-04-21T06:04:07.500Z,98149.41
2023-04-21T06:09:11.174Z,98140.16
2023-04-21T06:14:15.346Z,98143.03
2023-04-21T06:19:19.318Z,98137.97
2023-04-21T06:24:25.311Z,98142.44
2023-04-21T06:29:29.791Z,98139.06
2023-04-21T06:34:32.623Z,98137.59
2023-04-21T06:39:37.409Z,98141.72
2023-04-21T06:44:41.604Z,98148.97
2023-04-21T06:49:44.343Z,98136.41
2023-04-21T06:54:48.775Z,98136.75
2023-04-21T06:59:53.301Z,98140.47
2023-04-21T07:04:57.361Z,98139.50
2023-04-21T07:10:01.785Z,98149.53
2023-04-21T07:15:09.055Z,98143.34
2023-04-21T07:20:12.101Z,98139.56
2023-04-21T07:25:15.121Z,98144.59
2023-04-21T07:30:19.366Z,98143.19
2023-04-21T07:35:22.401Z,98146.91
2023-04-21T07:40:26.337Z,98147.88
2023-04-21T07:45:30.660Z,98147.38
2023-04-21T07:50:33.519Z,98160.97
2023-04-21T07:55:37.426Z,98153.81
2023-04-21T08:00:41.650Z,98155.28
2023-04-21T08:05:46.101Z,98150.34
2023-04-21T08:10:49.529Z,98152.47
2023-04-21T08:15:55.421Z,98146.72
2023-04-21T08:21:00.168Z,98147.81
2023-04-21T08:26:06.882Z,98145.91
2023-04-21T08:31:11.324Z,98153.84
2023-04-21T08:41:21.480Z,98145.63
2023-04-21T08:46:25.956Z,98125.44
2023-04-21T08:51:31.627Z,98126.25
2023-04-21T08:56:34.571Z,98132.56
2023-04-21T09:02:10.031Z,98137.53
2023-04-21T09:07:32.088Z,98135.75
2023-04-21T09:12:35.170Z,98131.69
2023-04-21T09:17:39.520Z,98133.06
2023-04-21T09:22:42.956Z,98126.91
2023-04-21T09:27:46.649Z,98125.41
2023-04-21T09:32:50.858Z,98126.19
2023-04-21T09:37:54.504Z,98115.19
2023-04-21T09:42:58.813Z,98131.25
2023-04-21T09:48:08.963Z,98133.56
2023-04-21T09:53:17.109Z,98118.00
2023-04-21T09:58:21.535Z,98111.28
2023-04-21T10:03:28.725Z,98106.53
2023-04-21T10:08:32.127Z,98104.94
2023-04-21T10:13:36.708Z,98094.78
2023-04-21T10:18:45.705Z,98086.19
2023-04-21T10:23:50.412Z,98089.28
2023-04-21T10:28:57.409Z,98079.22
2023-04-21T10:34:17.591Z,98085.06
2023-04-21T10:39:28.549Z,98072.28
2023-04-21T10:44:32.480Z,98077.34
2023-04-21T10:49:40.065Z,98083.91
2023-04-21T10:54:46.105Z,98071.66
2023-04-21T10:59:50.809Z,98059.88
2023-04-21T11:04:56.310Z,98064.53
2023-04-21T11:10:02.562Z,98056.88
2023-04-21T11:15:10.583Z,98056.09
2023-04-21T11:20:17.358Z,98038.91
2023-04-21T11:25:20.235Z,98046.53
2023-04-21T11:30:23.907Z,98044.91
2023-04-21T11:35:28.813Z,98031.97
2023-04-21T11:40:45.836Z,98011.06
2023-04-21T11:45:51.706Z,98011.13
2023-04-21T11:50:57.714Z,98009.91
2023-04-21T11:56:01.372Z,98008.38
2023-04-21T12:01:09.078Z,98016.44
2023-04-21T12:06:23.029Z,98024.34
2023-04-21T12:11:28.072Z,98016.72
2023-04-21T12:16:30.903Z,97998.09
2023-04-21T12:21:38.629Z,97999.69
2023-04-21T12:26:44.473Z,97995.69
2023-04-21T12:31:47.385Z,97998.19
2023-04-21T12:36:52.003Z,97981.47
2023-04-21T12:41:55.640Z,97983.28
2023-04-21T12:46:59.396Z,97980.28
2023-04-21T12:52:07.687Z,97970.34
2023-04-21T12:57:11.724Z,97962.25
2023-04-21T13:02:14.709Z,97963.72
2023-04-21T13:07:21.366Z,97961.97
2023-04-21T13:12:26.678Z,97964.72
2023-04-21T13:17:29.503Z,97963.22
2023-04-21T13:22:35.616Z,97955.47
2023-04-21T13:27:39.999Z,97956.63
2023-04-21T13:32:44.159Z,97947.44
2023-04-21T13:37:49.276Z,97944.69
2023-04-21T13:42:52.109Z,97926.69
2023-04-21T13:47:55.499Z,97925.84
2023-04-21T13:52:59.687Z,97906.56
2023-04-21T13:58:02.709Z,97900.13
2023-04-21T14:03:05.936Z,97897.41
2023-04-21T14:08:10.782Z,97886.53
2023-04-21T14:13:26.897Z,97881.03
2023-04-21T14:18:38.359Z,97868.31
2023-04-21T14:23:42.585Z,97867.75
2023-04-21T14:28:45.890Z,97856.78
2023-04-21T14:33:50.082Z,97853.59
2023-04-21T14:38:54.863Z,97861.50
2023-04-21T14:44:00.398Z,97844.25
2023-04-21T14:49:03.542Z,97843.72
2023-04-21T14:54:08.184Z,97844.88
2023-04-21T14:59:11.809Z,97833.75
2023-04-21T15:04:15.424Z,97832.47
2023-04-21T15:09:20.831Z,97824.63
2023-04-21T15:14:24.504Z,97821.03
2023-04-21T15:19:27.251Z,97816.59
2023-04-21T15:24:31.874Z,97811.00
2023-04-21T15:29:35.889Z,97812.94
2023-04-21T15:34:39.467Z,97803.28
2023-04-21T15:39:43.568Z,97792.16
2023-04-21T15:44:47.130Z,97786.38
2023-04-21T15:49:51.105Z,97780.13
2023-04-21T15:54:55.639Z,97780.53
2023-04-21T15:59:58.528Z,97771.53
2023-04-21T16:05:01.646Z,97766.41
2023-04-21T16:10:06.684Z,97756.44
2023-04-21T16:20:19.677Z,97746.47
2023-04-21T16:25:25.386Z,97741.03
2023-04-21T16:30:28.282Z,97735.25
2023-04-21T16:35:31.809Z,97720.09
2023-04-21T16:40:35.998Z,97727.38
2023-04-21T16:45:39.944Z,97733.34
2023-04-21T16:50:42.774Z,97711.81
2023-04-21T16:55:47.094Z,97718.44
2023-04-21T17:00:50.024Z,97721.94
2023-04-21T17:05:53.751Z,97713.91
2023-04-21T17:10:58.902Z,97718.75
2023-04-21T17:16:02.729Z,97721.88
2023-04-21T17:21:06.805Z,97706.06
2023-04-21T17:26:13.124Z,97714.13
2023-04-21T17:31:16.546Z,97699.69
2023-04-21T17:36:20.336Z,97715.22
2023-04-21T17:41:24.964Z,97721.31
2023-04-21T17:46:28.013Z,97732.13
2023-04-21T17:51:31.844Z,97724.19
2023-04-21T17:56:36.147Z,97729.81
2023-04-21T18:01:39.157Z,97737.31
2023-04-21T18:06:42.037Z,97739.94
2023-04-21T18:11:46.417Z,97734.56
2023-04-21T18:16:50.051Z,97740.22
2023-04-21T18:21:53.064Z,97761.06
2023-04-21T18:26:58.020Z,97859.50
2023-04-21T18:32:01.255Z,97836.88
2023-04-21T18:37:05.019Z,97852.09
2023-04-21T18:42:10.994Z,97817.72
2023-04-21T18:47:15.301Z,97751.41
2023-04-21T18:52:18.363Z,97725.09
2023-04-21T18:57:22.622Z,97724.63
2023-04-21T19:02:25.809Z,97749.16
2023-04-21T19:07:28.671Z,97787.34
2023-04-21T19:12:34.121Z,97802.13
2023-04-21T19:17:37.089Z,97805.03
2023-04-21T19:22:40.096Z,97799.56
2023-04-21T19:27:46.697Z,97784.84
2023-04-21T19:32:49.619Z,97784.00
2023-04-21T19:37:52.394Z,97810.03
2023-04-21T19:42:58.533Z,97788.84
2023-04-21T19:48:01.846Z,97790.19
2023-04-21T19:53:04.958Z,97780.41
2023-04-21T19:58:09.257Z,97785.34
2023-04-21T20:03:12.369Z,97788.59
2023-04-21T20:08:16.270Z,97788.66
2023-04-21T20:13:21.053Z,97786.16
2023-04-21T20:18:23.819Z,97780.72
2023-04-21T20:23:26.845Z,97786.78
2023-04-21T20:28:32.599Z,97782.94
2023-04-21T20:33:35.581Z,97782.38
2023-04-21T20:38:38.855Z,97778.72
2023-04-21T20:43:43.747Z,97778.50
2023-04-21T20:48:46.731Z,97770.63
2023-04-21T20:53:49.448Z,97770.94
2023-04-21T20:58:54.013Z,97771.22
2023-04-21T21:03:57.388Z,97764.09
2023-04-21T21:09:01.827Z,97760.03
2023-04-21T21:14:06.207Z,97763.00
2023-04-21T21:19:09.356Z,97758.50
2023-04-21T21:24:12.483Z,97761.59
2023-04-21T21:29:16.663Z,97755.84
2023-04-21T21:34:19.400Z,97762.00
2023-04-21T21:39:22.346Z,97751.78
2023-04-21T21:44:26.620Z,97759.50
2023-04-21T21:49:29.454Z,97762.69
2023-04-21T21:54:32.217Z,97766.03
2023-04-21T21:59:36.715Z,97759.06
2023-04-21T22:04:39.995Z,97761.28
2023-04-21T22:09:42.724Z,97764.50
2023-04-21T22:14:47.112Z,97760.00
2023-04-21T22:19:49.897Z,97760.41
2023-04-21T22:24:52.622Z,97750.19
2023-04-21T22:29:56.804Z,97766.84
2023-04-21T22:35:00.408Z,97775.00
2023-04-21T22:40:04.707Z,97776.25
2023-04-21T22:45:10.459Z,97778.91
2023-04-21T22:50:14.781Z,97777.41
2023-04-21T22:55:17.843Z,97782.84
2023-04-21T23:00:21.971Z,97787.31
2023-04-21T23:05:24.672Z,97776.94
2023-04-21T23:10:29.309Z,97777.50
2023-04-21T23:15:33.487Z,97781.13
2023-04-21T23:20:36.382Z,97786.59
2023-04-21T23:25:40.708Z,97778.44
2023-04-21T23:30:44.914Z,97776.66
2023-04-21T23:35:48.099Z,97774.97
2023-04-21T23:40:51.008Z,97773.13
2023-04-21T23:45:55.172Z,97772.16
2023-04-21T23:50:58.009Z,97771.72
2023-04-21T23:56:00.789Z,97758.72
